Time;durP1;ratioP1;P1;durP2;ratioP2;P2;SDS_P1;SDS_P2;PMS_P1;PMS_P2;Temp;Humidity;BMP_temperature;BMP_pressure;BME280_temperature;BME280_humidity;BME280_pressure;Samples;Min_cycle;Max_cycle;Signal;HPM_P1;HPM_P2
2022/06/26 00:02:00;;;;;;;18.35;6.70;;;;;;;29.32;31.55;99735.94;5041328;28;20044;-74
2022/06/26 00:04:26;;;;;;;14.10;6.13;;;;;;;29.30;31.12;99729.94;5024793;28;20047;-74
2022/06/26 00:06:52;;;;;;;17.33;6.53;;;;;;;29.30;31.34;99721.72;5024374;28;20063;-75
2022/06/26 00:09:17;;;;;;;12.07;6.20;;;;;;;29.33;31.30;99721.19;5023734;28;20558;-75
2022/06/26 00:11:43;;;;;;;25.02;6.68;;;;;;;29.27;31.36;99725.03;5057306;28;20058;-74
2022/06/26 00:14:09;;;;;;;12.35;5.95;;;;;;;29.39;31.60;99730.19;5057138;28;20130;-74
2022/06/26 00:16:35;;;;;;;12.68;6.10;;;;;;;29.35;31.64;99732.66;5023777;28;20131;-75
2022/06/26 00:19:00;;;;;;;11.32;6.05;;;;;;;29.35;31.57;99737.31;5056955;28;20089;-75
2022/06/26 00:21:26;;;;;;;19.00;6.50;;;;;;;29.35;31.65;99740.06;5056883;28;20048;-76
2022/06/26 00:23:52;;;;;;;12.10;6.20;;;;;;;29.37;31.70;99738.66;5023655;28;20044;-74
2022/06/26 00:26:18;;;;;;;14.52;6.70;;;;;;;29.28;31.69;99737.59;5023574;28;20458;-74
2022/06/26 00:28:43;;;;;;;12.65;6.38;;;;;;;29.28;31.75;99740.34;5024011;28;20176;-74
2022/06/26 00:31:09;;;;;;;11.48;5.80;;;;;;;29.22;31.79;99740.63;5024030;28;20518;-75
2022/06/26 00:33:35;;;;;;;11.32;5.55;;;;;;;29.24;31.59;99738.44;5023946;28;20039;-74
2022/06/26 00:36:01;;;;;;;13.25;5.88;;;;;;;29.19;31.81;99741.16;5056650;28;20044;-74
2022/06/26 00:38:28;;;;;;;13.68;6.10;;;;;;;29.21;31.85;99750.75;5040615;28;20138;-74
2022/06/26 00:40:53;;;;;;;13.85;6.22;;;;;;;29.16;31.88;99744.47;5040392;28;20126;-74
2022/06/26 00:43:19;;;;;;;19.10;6.10;;;;;;;29.14;32.05;99742.00;5056645;28;20089;-75
2022/06/26 00:45:45;;;;;;;11.35;5.82;;;;;;;29.16;31.98;99750.75;5039907;28;20047;-74
2022/06/26 00:48:11;;;;;;;12.77;6.00;;;;;;;29.19;32.04;99749.38;5056385;28;20036;-74
2022/06/26 00:50:37;;;;;;;13.13;5.93;;;;;;;29.18;31.92;99755.97;5023576;28;20628;-75
2022/06/26 00:53:04;;;;;;;11.65;5.80;;;;;;;29.25;32.00;99751.84;5023469;28;20142;-74
2022/06/26 00:55:30;;;;;;;11.95;5.97;;;;;;;29.12;32.08;99751.59;5073029;28;20102;-74
2022/06/26 00:57:56;;;;;;;12.70;5.78;;;;;;;29.06;32.13;99747.22;5057883;28;20044;-75
2022/06/26 01:00:22;;;;;;;9.18;5.53;;;;;;;29.10;32.55;99748.31;5041558;28;20080;-76
2022/06/26 01:02:48;;;;;;;13.85;6.75;;;;;;;29.10;32.33;99762.81;5039979;28;20090;-74
2022/06/26 01:05:14;;;;;;;16.58;6.45;;;;;;;29.05;32.62;99751.00;5039908;28;20051;-74
2022/06/26 01:07:40;;;;;;;20.42;6.55;;;;;;;29.12;32.33;99755.13;5022849;28;20384;-75
2022/06/26 01:10:06;;;;;;;12.98;6.30;;;;;;;29.06;32.28;99755.44;5023090;28;20044;-74
2022/06/26 01:12:32;;;;;;;14.75;6.22;;;;;;;29.12;32.70;99768.81;5027410;28;20060;-74
2022/06/26 01:15:01;;;;;;;15.50;6.03;;;;;;;29.07;32.55;99757.88;5060874;28;20044;-74
2022/06/26 01:17:29;;;;;;;11.75;6.05;;;;;;;29.05;32.33;99762.81;5061578;28;20134;-74
2022/06/26 01:19:56;;;;;;;12.00;5.55;;;;;;;29.15;32.54;99759.25;5060617;28;20181;-75
2022/06/26 01:22:26;;;;;;;9.35;6.00;;;;;;;29.20;32.44;99771.00;5027211;28;20130;-75
2022/06/26 01:24:52;;;;;;;17.02;7.20;;;;;;;28.97;33.23;99765.25;5060244;28;20051;-74
2022/06/26 01:27:18;;;;;;;11.32;6.53;;;;;;;28.98;32.96;99770.44;5043886;28;20040;-74
2022/06/26 01:29:46;;;;;;;12.75;5.95;;;;;;;29.01;32.89;99771.81;5026909;28;20124;-74
2022/06/26 01:32:12;;;;;;;12.80;7.80;;;;;;;29.00;33.10;99779.19;5060517;28;20435;-74
2022/06/26 01:34:37;;;;;;;12.60;6.53;;;;;;;28.98;33.16;99777.81;5059368;28;20040;-74
2022/06/26 01:37:05;;;;;;;11.68;6.68;;;;;;;28.96;33.23;99774.53;5027476;28;20514;-74
2022/06/26 01:39:31;;;;;;;15.00;7.13;;;;;;;28.96;33.59;99790.94;5026628;28;20039;-73
2022/06/26 01:41:57;;;;;;;9.15;6.22;;;;;;;28.89;33.51;99776.75;5043418;28;20105;-74
2022/06/26 01:44:23;;;;;;;14.52;6.45;;;;;;;28.96;33.53;99782.75;5043459;28;20048;-76
2022/06/26 01:46:49;;;;;;;19.85;7.70;;;;;;;28.89;33.73;99777.53;5043766;28;20051;-76
2022/06/26 01:49:16;;;;;;;18.73;6.93;;;;;;;28.86;33.82;99778.09;5060424;28;20504;-73
2022/06/26 01:51:42;;;;;;;16.42;7.68;;;;;;;28.89;33.82;99785.75;5076491;28;20035;-74
2022/06/26 01:54:08;;;;;;;13.80;7.07;;;;;;;28.94;33.84;99785.75;5043477;28;20097;-74
2022/06/26 01:56:35;;;;;;;15.70;7.40;;;;;;;28.97;33.85;99784.41;5044138;28;20151;-76
2022/06/26 01:59:01;;;;;;;16.20;7.53;;;;;;;28.97;34.01;99789.88;5043172;28;20546;-75
2022/06/26 02:01:39;;;;;;;15.48;7.15;;;;;;;29.01;33.71;99789.03;5029917;28;20048;-74
2022/06/26 02:04:05;;;;;;;17.60;7.25;;;;;;;29.01;33.79;99786.31;5026711;28;20050;-74
2022/06/26 02:06:31;;;;;;;15.60;7.38;;;;;;;29.04;33.93;99787.66;5059403;28;20143;-74
2022/06/26 02:08:57;;;;;;;18.38;7.85;;;;;;;29.05;33.81;99784.69;5042659;28;20074;-74
2022/06/26 02:14:09;;;;;;;24.98;8.07;;;;;;;29.02;34.04;99765.22;5045351;28;20139;-73
2022/06/26 02:16:46;;;;;;;20.00;7.72;;;;;;;29.13;34.21;99791.53;5046574;28;20040;-75
2022/06/26 02:19:14;;;;;;;23.67;8.38;;;;;;;29.14;34.29;99793.16;5059953;28;20562;-75
2022/06/26 02:21:40;;;;;;;25.50;9.05;;;;;;;29.18;33.96;99800.56;5025728;28;20134;-75
2022/06/26 02:24:06;;;;;;;25.42;8.57;;;;;;;29.15;34.18;99795.59;5075225;28;20047;-74
2022/06/26 02:26:32;;;;;;;29.77;9.18;;;;;;;29.19;34.23;99799.44;5026012;28;20093;-75
2022/06/26 02:28:58;;;;;;;25.02;8.25;;;;;;;29.29;34.14;99804.09;5059011;28;20048;-75
2022/06/26 02:31:27;;;;;;;27.73;8.75;;;;;;;29.31;34.08;99807.34;5059437;28;20063;-76
2022/06/26 02:33:54;;;;;;;21.27;8.90;;;;;;;29.35;34.02;99803.00;5026001;28;20469;-78
2022/06/26 02:36:20;;;;;;;19.13;8.73;;;;;;;29.41;34.03;99808.19;5076442;28;20056;-75
2022/06/26 02:38:46;;;;;;;22.73;9.00;;;;;;;29.46;34.07;99819.09;5025921;28;20042;-75
2022/06/26 02:41:12;;;;;;;18.45;9.00;;;;;;;29.38;34.01;99792.28;5042568;28;20039;-75
2022/06/26 02:43:38;;;;;;;27.55;9.07;;;;;;;29.53;34.03;99822.41;5042318;28;20046;-74
2022/06/26 02:46:07;;;;;;;18.73;8.38;;;;;;;29.54;33.88;99818.56;5026890;28;20047;-74
2022/06/26 02:48:33;;;;;;;27.65;9.40;;;;;;;29.61;33.98;99823.75;5025643;28;20040;-76
2022/06/26 02:50:59;;;;;;;26.50;9.45;;;;;;;29.67;33.91;99824.56;5025802;28;20055;-74
2022/06/26 02:53:25;;;;;;;29.77;9.73;;;;;;;29.70;34.13;99833.06;5042163;28;20040;-76
2022/06/26 02:55:51;;;;;;;20.77;9.55;;;;;;;29.74;33.92;99831.41;5026157;28;20047;-75
2022/06/26 02:58:22;;;;;;;22.85;9.93;;;;;;;29.76;33.83;99826.47;5076577;28;20036;-74
2022/06/26 03:00:59;;;;;;;27.75;9.50;;;;;;;29.60;34.13;99835.78;5060252;28;20044;-77
2022/06/26 03:03:25;;;;;;;21.83;9.35;;;;;;;29.54;34.46;99839.63;5041700;28;20035;-79
2022/06/26 03:05:51;;;;;;;25.63;9.48;;;;;;;29.57;34.46;99837.16;5075194;28;20047;-76
2022/06/26 03:08:21;;;;;;;25.45;9.50;;;;;;;29.60;34.40;99839.34;5075578;28;20047;-75
2022/06/26 03:10:49;;;;;;;22.70;10.13;;;;;;;29.64;34.46;99833.34;5041647;28;20039;-75
2022/06/26 03:13:15;;;;;;;22.65;9.32;;;;;;;29.71;34.39;99839.38;5042011;28;20423;-75
2022/06/26 03:15:44;;;;;;;33.45;10.10;;;;;;;29.81;34.21;99844.81;5041750;28;20560;-75
2022/06/26 03:18:11;;;;;;;23.23;10.38;;;;;;;29.82;34.40;99852.75;5025418;28;20040;-75
2022/06/26 03:20:39;;;;;;;28.10;10.40;;;;;;;29.86;34.32;99855.75;5025272;28;20047;-74
2022/06/26 03:23:09;;;;;;;19.17;8.75;;;;;;;29.85;34.50;99851.34;5058421;28;20411;-74
2022/06/26 03:25:35;;;;;;;25.83;9.55;;;;;;;29.87;34.26;99854.63;5024845;28;20050;-75
2022/06/26 03:28:02;;;;;;;26.77;9.77;;;;;;;29.95;34.23;99856.81;5041949;28;20047;-75
2022/06/26 03:30:31;;;;;;;16.50;8.07;;;;;;;29.98;33.96;99857.09;5041758;28;20411;-76
2022/06/26 03:32:57;;;;;;;29.60;10.55;;;;;;;30.07;34.38;99860.88;5024903;28;20079;-79
2022/06/26 03:35:22;;;;;;;26.25;9.35;;;;;;;30.18;33.90;99857.00;5040303;28;20128;-75
2022/06/26 03:37:48;;;;;;;26.27;10.27;;;;;;;30.27;34.11;99858.09;5024710;28;20112;-75
2022/06/26 03:40:14;;;;;;;29.52;10.05;;;;;;;30.26;34.14;99839.19;5057595;28;20036;-74
2022/06/26 03:42:40;;;;;;;26.10;10.45;;;;;;;30.37;34.00;99846.28;5040658;28;20507;-75
2022/06/26 03:45:07;;;;;;;24.35;9.18;;;;;;;30.56;34.16;99853.56;5041090;28;20075;-75
2022/06/26 03:47:34;;;;;;;24.67;9.95;;;;;;;30.54;33.85;99865.88;5057990;28;20131;-76
2022/06/26 03:50:03;;;;;;;21.15;8.70;;;;;;;30.73;34.03;99864.13;5057595;28;20185;-75
2022/06/26 03:52:31;;;;;;;26.02;9.95;;;;;;;30.61;33.96;99866.41;5041623;28;20044;-75
2022/06/26 03:54:59;;;;;;;28.02;10.32;;;;;;;30.66;33.83;99861.72;5041905;28;20036;-76
2022/06/26 03:57:25;;;;;;;25.77;10.10;;;;;;;30.64;34.04;99854.88;5024677;28;20054;-76
2022/06/26 03:59:54;;;;;;;23.52;9.48;;;;;;;30.68;33.81;99853.19;5057365;28;20039;-74
2022/06/26 04:02:27;;;;;;;23.17;9.32;;;;;;;30.74;33.89;99857.53;5043315;28;20083;-74
2022/06/26 04:04:53;;;;;;;23.02;9.43;;;;;;;30.82;34.02;99856.97;5057235;28;20117;-74
2022/06/26 04:07:21;;;;;;;26.55;9.93;;;;;;;31.04;33.95;99869.16;5024159;28;20040;-74
2022/06/26 04:09:57;;;;;;;23.35;8.95;;;;;;;30.94;33.52;99862.94;5073996;28;20050;-75
2022/06/26 04:12:22;;;;;;;25.30;9.20;;;;;;;30.94;33.70;99854.69;5057265;28;20068;-75
2022/06/26 04:14:48;;;;;;;26.42;9.27;;;;;;;31.02;33.37;99860.41;5024382;28;21044;-73
2022/06/26 04:17:15;;;;;;;20.98;9.45;;;;;;;31.09;33.24;99862.84;5041465;28;20044;-74
2022/06/26 04:19:52;;;;;;;22.17;8.77;;;;;;;31.21;33.25;99865.19;5058571;28;20048;-74
2022/06/26 04:22:18;;;;;;;26.98;9.35;;;;;;;31.26;33.22;99870.66;5023757;28;20048;-74
2022/06/26 04:24:44;;;;;;;25.23;9.63;;;;;;;31.32;33.16;99867.63;5023909;28;20155;-75
2022/06/26 04:27:10;;;;;;;21.98;8.60;;;;;;;31.33;33.29;99868.41;5023821;28;20434;-76
2022/06/26 04:29:36;;;;;;;16.17;7.95;;;;;;;31.40;33.06;99877.94;5040372;28;20043;-75
2022/06/26 04:32:02;;;;;;;18.80;8.63;;;;;;;31.53;33.05;99873.72;5023850;28;20105;-75
2022/06/26 04:34:37;;;;;;;16.88;7.88;;;;;;;31.59;32.63;99875.31;5042781;28;20050;-75
2022/06/26 04:37:04;;;;;;;15.68;8.18;;;;;;;31.61;33.06;99871.19;5024149;28;20047;-75
2022/06/26 04:39:30;;;;;;;16.27;7.07;;;;;;;31.70;31.93;99879.59;5023736;28;20047;-79
2022/06/26 04:42:01;;;;;;;18.92;6.93;;;;;;;31.71;32.35;99875.72;5041259;28;20481;-76
2022/06/26 04:44:28;;;;;;;14.20;6.90;;;;;;;31.72;31.97;99874.66;5073774;28;20047;-75
2022/06/26 04:46:57;;;;;;;15.98;6.72;;;;;;;31.77;31.99;99891.06;5040925;28;20092;-76
2022/06/26 04:49:27;;;;;;;21.75;6.85;;;;;;;31.87;31.75;99882.75;5025297;28;20055;-75
2022/06/26 04:51:53;;;;;;;15.77;5.80;;;;;;;31.93;31.08;99895.31;5073640;28;20052;-75
2022/06/26 04:54:30;;;;;;;15.30;5.97;;;;;;;32.09;31.20;99897.59;5043557;28;20048;-75
2022/06/26 04:56:55;;;;;;;19.63;5.57;;;;;;;32.10;31.23;99902.00;5039990;28;20044;-76
2022/06/26 04:59:21;;;;;;;9.60;4.28;;;;;;;32.04;29.97;99894.09;5039995;28;20038;-74
2022/06/26 05:01:47;;;;;;;17.65;4.85;;;;;;;32.09;28.76;99891.31;5040180;28;20047;-75
2022/06/26 05:04:13;;;;;;;11.32;4.20;;;;;;;32.18;28.61;99898.59;5056621;28;20407;-75
2022/06/26 05:07:14;;;;;;;8.98;3.55;;;;;;;32.22;27.98;99898.84;5054784;28;20077;-76
2022/06/26 05:09:40;;;;;;;9.55;4.18;;;;;;;32.30;28.48;99901.75;5040029;28;20130;-75
2022/06/26 05:12:07;;;;;;;10.45;3.60;;;;;;;32.37;28.03;99896.75;5056346;28;20112;-74
2022/06/26 05:14:51;;;;;;;9.15;3.50;;;;;;;32.41;27.88;99897.78;5058900;28;20040;-74
2022/06/26 05:17:19;;;;;;;9.82;3.90;;;;;;;32.44;28.31;99897.19;5042107;28;20056;-75
2022/06/26 05:19:46;;;;;;;9.50;3.78;;;;;;;32.56;28.31;99900.34;5042317;28;20048;-74
2022/06/26 05:22:12;;;;;;;7.32;3.42;;;;;;;32.58;27.69;99889.88;5041978;28;20052;-75
2022/06/26 05:24:40;;;;;;;9.32;3.63;;;;;;;32.73;27.76;99905.34;5058195;28;20046;-75
2022/06/26 05:27:06;;;;;;;12.00;3.55;;;;;;;32.84;27.28;99903.28;5023341;28;20052;-76
2022/06/26 05:29:32;;;;;;;8.70;2.90;;;;;;;32.89;26.06;99909.53;5039999;28;20507;-74
2022/06/26 05:31:58;;;;;;;6.18;2.67;;;;;;;32.90;25.17;99899.34;5040136;28;20040;-76
2022/06/26 05:34:24;;;;;;;5.70;3.30;;;;;;;33.00;25.43;99913.00;5039566;28;20051;-76
2022/06/26 05:36:53;;;;;;;6.43;3.15;;;;;;;33.09;25.04;99905.69;5023279;28;20050;-75
2022/06/26 05:39:22;;;;;;;8.82;3.20;;;;;;;33.15;25.21;99915.50;5039771;28;20051;-75
2022/06/26 05:41:50;;;;;;;6.22;2.92;;;;;;;33.23;24.94;99895.56;5040259;28;20419;-75
2022/06/26 05:44:18;;;;;;;5.85;2.55;;;;;;;33.36;24.73;99903.03;5039628;28;20054;-75
2022/06/26 05:46:50;;;;;;;6.60;2.80;;;;;;;33.48;24.66;99914.41;5073026;28;20127;-75
2022/06/26 05:49:34;;;;;;;6.85;2.75;;;;;;;33.61;24.39;99910.91;5061026;28;20044;-78
2022/06/26 05:52:14;;;;;;;3.65;2.05;;;;;;;33.76;23.88;99913.38;5026881;28;20056;-75
2022/06/26 05:55:03;;;;;;;9.05;2.25;;;;;;;33.94;23.36;99916.09;5061149;28;20636;-75
2022/06/26 05:57:51;;;;;;;10.90;2.65;;;;;;;34.08;22.96;99916.09;5063649;28;20048;-75
2022/06/26 06:00:30;;;;;;;6.47;2.50;;;;;;;34.20;22.75;99916.41;5029267;28;20059;-76
2022/06/26 06:02:56;;;;;;;5.50;2.40;;;;;;;34.22;23.24;99915.00;5060098;28;20109;-75
2022/06/26 06:05:22;;;;;;;9.60;3.50;;;;;;;34.31;22.99;99904.06;5043178;28;20387;-75
2022/06/26 06:07:48;;;;;;;7.22;2.67;;;;;;;34.44;22.68;99906.03;5043221;28;20044;-75
2022/06/26 06:10:15;;;;;;;9.40;3.05;;;;;;;34.50;22.74;99909.50;5059447;28;20043;-75
2022/06/26 06:12:42;;;;;;;8.88;3.00;;;;;;;34.52;23.05;99910.00;5043720;28;20055;-76
2022/06/26 06:15:13;;;;;;;9.15;3.28;;;;;;;34.38;23.09;99895.41;5027205;28;20572;-75
2022/06/26 06:17:44;;;;;;;5.53;3.35;;;;;;;34.67;23.32;99906.91;5044288;28;20129;-75
2022/06/26 06:20:18;;;;;;;5.00;3.03;;;;;;;34.89;22.72;99916.09;5059382;28;20495;-75
2022/06/26 06:22:54;;;;;;;6.90;3.05;;;;;;;35.02;22.97;99906.97;5059762;28;20132;-76
2022/06/26 06:25:22;;;;;;;9.50;2.90;;;;;;;35.09;22.88;99903.78;5059234;28;20538;-75
2022/06/26 06:27:48;;;;;;;7.63;3.65;;;;;;;35.11;22.97;99907.03;5042573;28;20070;-75
2022/06/26 06:30:18;;;;;;;8.43;4.13;;;;;;;35.20;23.05;99905.97;5058762;28;20039;-75
2022/06/26 06:32:45;;;;;;;11.73;3.60;;;;;;;35.21;22.70;99907.59;5058810;28;20505;-76
2022/06/26 06:35:48;;;;;;;10.15;3.25;;;;;;;35.33;22.36;99905.09;5048487;28;20467;-75
2022/06/26 06:38:15;;;;;;;9.20;3.85;;;;;;;35.44;22.22;99902.94;5042832;28;20178;-75
2022/06/26 06:40:48;;;;;;;7.45;3.80;;;;;;;35.61;21.91;99908.56;5043255;28;20138;-74
2022/06/26 06:43:18;;;;;;;11.50;3.95;;;;;;;35.78;21.93;99926.06;5059593;28;20035;-75
2022/06/26 06:46:10;;;;;;;7.70;3.90;;;;;;;35.87;21.39;99917.84;5026229;28;20083;-75
2022/06/26 06:48:38;;;;;;;12.80;3.78;;;;;;;35.96;21.24;99923.41;5058903;28;20122;-76
2022/06/26 06:51:07;;;;;;;11.45;3.92;;;;;;;35.98;21.30;99904.56;5043134;28;20047;-75
2022/06/26 06:53:33;;;;;;;7.40;3.70;;;;;;;36.17;20.98;99910.66;5042311;28;20356;-75
2022/06/26 06:55:58;;;;;;;7.30;3.70;;;;;;;36.26;21.18;99917.84;5041905;28;20044;-76
2022/06/26 06:58:24;;;;;;;8.13;3.80;;;;;;;36.31;20.96;99898.38;5025104;28;20035;-75
2022/06/26 07:00:50;;;;;;;8.48;3.13;;;;;;;36.62;20.98;99910.19;5025080;28;20047;-75
2022/06/26 07:03:16;;;;;;;6.47;3.50;;;;;;;36.79;20.39;99914.94;5041930;28;20131;-75
2022/06/26 07:05:42;;;;;;;8.48;3.40;;;;;;;36.85;19.90;99908.94;5025241;28;20040;-75
2022/06/26 07:08:08;;;;;;;6.30;3.58;;;;;;;36.96;19.96;99910.25;5024964;28;20499;-75
2022/06/26 07:10:34;;;;;;;6.03;3.30;;;;;;;37.14;19.98;99917.44;5058353;28;20051;-74
2022/06/26 07:13:00;;;;;;;8.07;2.92;;;;;;;37.38;20.02;99919.72;5021497;28;20052;-74
2022/06/26 07:15:31;;;;;;;9.43;3.30;;;;;;;37.55;19.66;99925.22;5055594;28;20393;-75
2022/06/26 07:21:50;;;;;;;5.78;2.90;;;;;;;38.07;18.52;99914.84;5071182;28;20059;-75
2022/06/26 07:24:16;;;;;;;5.53;2.55;;;;;;;38.36;18.18;99907.41;5054840;28;20044;-75
2022/06/26 07:27:07;;;;;;;8.63;3.08;;;;;;;38.90;17.40;99910.34;5028829;28;20040;-75
2022/06/26 07:29:38;;;;;;;11.00;3.17;;;;;;;39.33;16.96;99922.75;5039310;28;20462;-75
2022/06/26 07:32:04;;;;;;;10.50;3.08;;;;;;;39.74;16.55;99919.09;5021582;28;20454;-74
2022/06/26 07:34:30;;;;;;;5.05;2.55;;;;;;;40.19;15.76;99914.34;5037966;28;20543;-74
2022/06/26 07:36:59;;;;;;;6.18;2.90;;;;;;;40.82;15.79;99913.66;5038183;28;20066;-75
2022/06/26 07:39:24;;;;;;;6.15;2.80;;;;;;;41.70;14.88;99921.84;5054526;28;20456;-75
2022/06/26 07:41:51;;;;;;;4.85;2.63;;;;;;;42.71;13.77;99928.47;5038006;28;20045;-75
2022/06/26 07:44:17;;;;;;;6.40;2.88;;;;;;;44.09;13.40;99921.75;5037736;28;20135;-75
2022/06/26 07:46:53;;;;;;;8.93;2.80;;;;;;;45.57;11.62;99924.78;5039652;28;20044;-75
2022/06/26 07:49:53;;;;;;;9.52;2.60;;;;;;;47.63;10.30;99931.16;5035922;28;20044;-75
2022/06/26 07:52:23;;;;;;;9.37;2.40;;;;;;;49.52;8.66;99928.59;5022506;28;20052;-75
2022/06/26 07:54:49;;;;;;;5.68;2.42;;;;;;;51.27;7.48;99929.09;5054233;28;20282;-76
2022/06/26 07:57:14;;;;;;;9.45;2.28;;;;;;;52.87;6.33;99936.25;5037352;28;20044;-77
2022/06/26 07:59:42;;;;;;;3.45;2.15;;;;;;;54.00;5.69;99926.09;5037716;28;20052;-76
2022/06/26 08:02:09;;;;;;;3.70;2.17;;;;;;;54.80;5.59;99923.19;5071046;28;20041;-76
2022/06/26 08:04:35;;;;;;;6.57;2.10;;;;;;;55.68;5.18;99914.88;5054262;28;20045;-76
2022/06/26 08:07:01;;;;;;;5.30;2.30;;;;;;;56.56;4.62;99920.47;5020727;28;20050;-76
2022/06/26 08:09:30;;;;;;;4.57;2.40;;;;;;;57.26;3.83;99919.94;5037270;28;20056;-76
2022/06/26 08:11:55;;;;;;;4.40;2.10;;;;;;;57.89;3.48;99913.75;5076369;28;21632;-76
2022/06/26 08:14:23;;;;;;;6.60;2.10;;;;;;;58.10;3.42;99905.03;5074337;28;20453;-76
2022/06/26 08:16:52;;;;;;;8.23;2.20;;;;;;;58.81;3.20;99903.56;5073694;28;20148;-76
2022/06/26 08:19:17;;;;;;;4.05;1.80;;;;;;;59.34;3.18;99903.16;5040611;28;20484;-76
2022/06/26 08:22:04;;;;;;;5.03;2.00;;;;;;;59.62;2.60;99893.19;5056390;28;20036;-78
2022/06/26 08:24:30;;;;;;;7.82;2.30;;;;;;;60.16;2.61;99895.81;5026468;28;20070;-77
2022/06/26 08:26:58;;;;;;;7.05;2.00;;;;;;;60.21;2.49;99886.50;5091624;28;20085;-77
2022/06/26 08:29:31;;;;;;;9.20;1.85;;;;;;;60.51;2.33;99893.94;5091739;28;20471;-77
2022/06/26 08:31:59;;;;;;;8.90;1.90;;;;;;;59.72;2.53;99891.84;5073963;28;20052;-77
2022/06/26 08:34:25;;;;;;;9.45;1.90;;;;;;;57.36;3.28;99881.59;5056782;28;20160;-78
2022/06/26 08:36:52;;;;;;;3.90;2.10;;;;;;;56.61;3.81;99879.13;5039968;28;20238;-76
2022/06/26 08:39:18;;;;;;;5.55;2.13;;;;;;;56.73;3.54;99876.22;5056791;28;20500;-78
2022/06/26 08:41:48;;;;;;;5.28;1.75;;;;;;;57.87;2.86;99857.00;5073381;28;20139;-80
2022/06/26 08:44:16;;;;;;;5.55;1.88;;;;;;;59.13;2.36;99878.38;5040576;28;20085;-81
2022/06/26 08:46:44;;;;;;;4.28;1.77;;;;;;;59.94;2.43;99863.72;5073505;28;20049;-76
2022/06/26 08:49:13;;;;;;;3.75;1.85;;;;;;;60.95;1.85;99873.91;5040065;28;20055;-76
2022/06/26 08:51:40;;;;;;;7.25;1.65;;;;;;;61.72;1.35;99884.66;5056702;28;20040;-77
2022/06/26 08:54:06;;;;;;;5.93;1.80;;;;;;;61.85;1.29;99870.72;5039987;28;20048;-77
2022/06/26 08:56:33;;;;;;;6.57;2.30;;;;;;;62.30;0.92;99874.97;5073352;28;20100;-76
2022/06/26 08:58:59;;;;;;;5.57;2.03;;;;;;;62.55;1.37;99864.81;5073640;28;20137;-76
2022/06/26 09:01:25;;;;;;;8.32;1.55;;;;;;;63.05;0.70;99866.16;5039840;28;20059;-79
2022/06/26 09:03:51;;;;;;;5.32;1.85;;;;;;;63.42;0.65;99857.56;5056494;28;20665;-78
2022/06/26 09:06:18;;;;;;;6.65;1.70;;;;;;;63.70;0.35;99859.34;5023188;28;20043;-77
2022/06/26 09:08:45;;;;;;;7.95;1.50;;;;;;;63.92;0.55;99862.34;5023507;28;20412;-76
2022/06/26 09:11:11;;;;;;;6.55;1.80;;;;;;;63.82;0.68;99845.78;5091213;28;20039;-76
2022/06/26 09:13:39;;;;;;;3.40;1.50;;;;;;;63.83;0.35;99853.13;5090805;28;20056;-78
2022/06/26 09:16:05;;;;;;;3.67;1.60;;;;;;;64.18;0.53;99848.56;5056436;28;20177;-78
2022/06/26 09:18:34;;;;;;;10.57;1.65;;;;;;;64.41;0.13;99849.44;5039496;28;20112;-77
2022/06/26 09:21:00;;;;;;;3.78;1.50;;;;;;;64.72;0.16;99840.63;5090857;28;20410;-75
2022/06/26 09:23:25;;;;;;;5.57;1.30;;;;;;;65.28;0.17;99835.66;5022833;28;20044;-77
2022/06/26 09:25:51;;;;;;;3.30;1.45;;;;;;;65.05;0.18;99836.97;5056017;28;20043;-78
2022/06/26 09:28:20;;;;;;;6.05;1.70;;;;;;;64.20;0.29;99839.41;5022974;28;20105;-78
2022/06/26 09:30:45;;;;;;;6.10;1.80;;;;;;;64.11;0.29;99837.53;5056718;28;20418;-77
2022/06/26 09:33:11;;;;;;;5.15;1.60;;;;;;;64.12;0.59;99827.56;5041281;28;20093;-77
2022/06/26 09:35:37;;;;;;;5.45;1.45;;;;;;;64.12;0.44;99821.78;5043829;28;20101;-78
2022/06/26 09:38:03;;;;;;;9.25;1.65;;;;;;;63.86;0.38;99815.34;5027107;28;20040;-77
2022/06/26 09:40:29;;;;;;;6.60;1.58;;;;;;;63.50;0.67;99807.53;5027063;28;20087;-78
2022/06/26 09:42:56;;;;;;;6.80;1.58;;;;;;;61.77;1.50;99805.47;5043406;28;20067;-77
2022/06/26 09:45:22;;;;;;;7.18;1.83;;;;;;;58.83;2.55;99789.31;5043228;28;20044;-76
2022/06/26 09:47:48;;;;;;;12.85;2.35;;;;;;;56.09;3.67;99788.44;5043416;28;20113;-81
2022/06/26 09:50:14;;;;;;;8.07;2.38;;;;;;;54.27;4.56;99777.94;5026975;28;20135;-76
2022/06/26 09:52:42;;;;;;;8.55;2.20;;;;;;;53.14;5.03;99771.44;5076169;28;20465;-76
2022/06/26 09:55:09;;;;;;;4.32;2.38;;;;;;;53.05;5.09;99769.22;5076438;28;20533;-76
2022/06/26 09:57:36;;;;;;;7.57;2.60;;;;;;;54.91;4.35;99779.72;5060020;28;20047;-76
2022/06/26 10:00:04;;;;;;;6.57;2.17;;;;;;;56.80;3.54;99783.78;5059692;28;20059;-76
2022/06/26 10:06:25;;;;;;;7.70;2.03;;;;;;;60.07;2.05;99789.66;5062369;28;20082;-77
2022/06/26 10:08:29;;;;;;;6.88;2.00;;;;;;;61.43;1.48;99783.25;5047556;28;20142;-78
2022/06/26 10:10:58;;;;;;;5.93;2.30;;;;;;;62.00;1.09;99781.44;5025942;28;20500;-77
2022/06/26 10:13:26;;;;;;;12.13;2.20;;;;;;;62.29;0.86;99786.22;5076120;28;20052;-76
2022/06/26 10:16:34;;;;;;;4.95;2.10;;;;;;;61.59;0.99;99776.97;5059827;28;20052;-77
2022/06/26 10:18:59;;;;;;;5.38;2.08;;;;;;;61.55;1.68;99780.06;5039414;28;20510;-78
2022/06/26 10:21:25;;;;;;;8.75;2.20;;;;;;;61.72;1.55;99783.16;5042282;28;20043;-75
2022/06/26 10:24:01;;;;;;;3.33;1.88;;;;;;;62.49;0.73;99775.47;5059167;28;20051;-77
2022/06/26 10:26:26;;;;;;;9.05;2.30;;;;;;;62.62;0.92;99773.03;5075959;28;20044;-78
2022/06/26 10:28:58;;;;;;;7.82;2.20;;;;;;;61.26;1.38;99765.78;5026089;28;20536;-77
2022/06/26 10:31:24;;;;;;;6.93;2.50;;;;;;;61.11;1.56;99772.81;5058996;28;20040;-77
2022/06/26 10:33:50;;;;;;;7.25;2.17;;;;;;;61.28;1.74;99768.94;5059186;28;20480;-82
2022/06/26 10:36:23;;;;;;;7.35;2.30;;;;;;;61.78;1.30;99772.53;5059288;28;20140;-76
2022/06/26 10:38:49;;;;;;;5.82;2.30;;;;;;;61.93;1.15;99765.41;5042958;28;20046;-79
2022/06/26 10:44:12;;;;;;;5.05;2.10;;;;;;;61.06;1.71;99762.81;5077501;28;20036;-77
2022/06/26 10:46:44;;;;;;;6.00;2.30;;;;;;;58.66;2.65;99752.88;5075396;28;20582;-76
2022/06/26 10:49:11;;;;;;;8.98;2.90;;;;;;;56.33;3.71;99738.25;5058506;28;20044;-76
2022/06/26 10:51:42;;;;;;;11.93;2.70;;;;;;;56.24;3.93;99741.00;5041934;28;20105;-76
2022/06/26 10:54:25;;;;;;;9.57;2.88;;;;;;;56.65;3.64;99719.94;5075265;28;20120;-76
2022/06/26 10:57:15;;;;;;;6.65;2.85;;;;;;;57.03;3.50;99743.28;5058718;28;20123;-76
2022/06/26 10:59:42;;;;;;;6.07;2.20;;;;;;;57.57;3.39;99740.66;5025178;28;20043;-76
2022/06/26 11:02:10;;;;;;;7.95;2.50;;;;;;;58.38;2.52;99743.53;5058412;28;20122;-76
2022/06/26 11:04:49;;;;;;;11.87;2.60;;;;;;;58.23;2.82;99741.81;5025343;28;20040;-76
2022/06/26 11:07:16;;;;;;;8.50;2.40;;;;;;;57.72;2.64;99722.41;5075382;28;20131;-76
2022/06/26 11:09:42;;;;;;;7.50;2.30;;;;;;;56.80;3.52;99732.38;5092835;28;20546;-75
2022/06/26 11:12:08;;;;;;;8.25;2.55;;;;;;;55.37;3.50;99740.00;5025133;28;20071;-77
2022/06/26 11:14:34;;;;;;;7.55;2.22;;;;;;;53.60;4.58;99719.22;5024901;28;20076;-76
2022/06/26 11:17:00;;;;;;;7.57;2.20;;;;;;;52.24;5.51;99721.84;5092951;28;20040;-76
2022/06/26 11:19:29;;;;;;;5.88;2.55;;;;;;;51.57;5.91;99727.97;5024876;28;20055;-76
2022/06/26 11:22:10;;;;;;;13.25;2.67;;;;;;;50.95;6.25;99722.06;5074868;28;20044;-76
2022/06/26 11:24:54;;;;;;;10.20;2.55;;;;;;;50.44;6.71;99726.75;5025011;28;20054;-76
2022/06/26 11:27:21;;;;;;;7.10;2.50;;;;;;;50.14;6.97;99712.56;5075037;28;20064;-76
2022/06/26 11:29:47;;;;;;;6.70;2.45;;;;;;;49.24;6.79;99692.38;5074173;28;20102;-77
2022/06/26 11:32:13;;;;;;;5.47;2.60;;;;;;;48.56;7.84;99713.75;5058355;28;20578;-76
2022/06/26 11:34:52;;;;;;;10.00;2.60;;;;;;;47.92;8.01;99714.31;5075057;28;20047;-76
2022/06/26 11:37:31;;;;;;;3.92;2.63;;;;;;;47.17;8.47;99707.06;5041455;28;20044;-77
2022/06/26 11:39:57;;;;;;;5.35;2.75;;;;;;;46.25;9.31;99707.94;5041324;28;20079;-76
2022/06/26 11:42:24;;;;;;;13.13;3.05;;;;;;;46.04;9.56;99706.59;5025273;28;20071;-76
2022/06/26 11:44:52;;;;;;;10.02;3.90;;;;;;;45.84;9.71;99687.63;5041166;28;20048;-77
2022/06/26 11:47:18;;;;;;;10.45;3.20;;;;;;;45.90;9.74;99703.69;5074402;28;20056;-76
2022/06/26 11:49:45;;;;;;;7.63;3.10;;;;;;;45.69;9.85;99708.34;5074142;28;20515;-76
2022/06/26 11:52:11;;;;;;;9.20;2.83;;;;;;;45.35;10.06;99698.44;5040899;28;20130;-76